Terminal Aerodrome Forecast
Issued by NWS

Home | Current Version | Previous Version | Text Only | Print | Product List | Glossary On
Versions: 1 2 3 4 5 6 7 8 9 10 11 12 13 14 15 16 17 18 19 20 21 22 23 24 25 26 27 28 29 30 31 32 33 34 35 36 37 38 39 40 41 42 43 44 45 46 47 48 49 50
000
FTUS41 KBUF 240537
TAFIAG
TAF
KIAG 240537Z 2406/2506 31015G27KT 6SM BR OVC015
      TEMPO 2406/2408 4SM -SHRA
     FM241000 30010G20KT P6SM BKN020
     FM241500 32010KT P6SM OVC035
     FM250200 35005KT P6SM SCT120=

USA.gov is the U.S. government's official web portal to all federal, state and local government web resources and services.